This is the latest recevied weather packets stored in our database for station/object E23XBQ-1. If no packets are shown the sender has not sent any weather packets the latest 10 day(s).
| Time | Temp. | Humidity | Pressure | Rain* | Wind** | Luminosity | Snow |
|---|---|---|---|---|---|---|---|
| 1777778463 | 35° C | 42% | 973 hPa | - | - | 0 W/m² | - |
| 1777777838 | 34.44° C | 44% | 973 hPa | - | - | 0 W/m² | - |
| 1777777213 | 33.89° C | 47% | 973 hPa | - | - | 0 W/m² | - |
| 1777776589 | 33.33° C | 52% | 973 hPa | - | - | 0 W/m² | - |
| 1777775964 | 32.78° C | 49% | 974 hPa | - | - | 0 W/m² | - |
| 1777775340 | 31.67° C | 59% | 974 hPa | - | - | 0 W/m² | - |
| 1777774715 | 29.44° C | 73% | 974 hPa | - | - | 0 W/m² | - |
| 1777774090 | 29.44° C | 74% | 974 hPa | - | - | 0 W/m² | - |
| 1777773465 | 28.89° C | 73% | 973 hPa | - | - | 0 W/m² | - |
| 1777772839 | 28.89° C | 72% | 973 hPa | - | - | 0 W/m² | - |
| 1777772212 | 28.33° C | 77% | 973 hPa | - | - | 0 W/m² | - |
| 1777771587 | 27.78° C | 80% | 973 hPa | - | - | 0 W/m² | - |
| 1777770961 | 27.78° C | 83% | 973 hPa | - | - | 0 W/m² | - |
| 1777770337 | 27.78° C | 83% | 973 hPa | - | - | 0 W/m² | - |
| 1777769713 | 27.22° C | 83% | 973 hPa | - | - | 0 W/m² | - |
| 1777769088 | 27.22° C | 86% | 973 hPa | - | - | 0 W/m² | - |
| 1777768461 | 26.67° C | 91% | 973 hPa | - | - | 0 W/m² | - |
| 1777767837 | 25.56° C | 98% | 973 hPa | - | - | 0 W/m² | - |
| 1777767209 | 25.56° C | 99% | 972 hPa | - | - | 0 W/m² | - |
| 1777766581 | 25.56° C | 99% | 972 hPa | - | - | 0 W/m² | - |
| 1777765955 | 25° C | 99% | 972 hPa | - | - | 0 W/m² | - |
| 1777765328 | 25.56° C | 99% | 972 hPa | - | - | 0 W/m² | - |
| 1777764703 | 25.56° C | 93% | 971 hPa | - | - | 0 W/m² | - |
| 1777764078 | 25° C | 92% | 971 hPa | - | - | 0 W/m² | - |
| 1777763454 | 24.44° C | 90% | 971 hPa | - | - | 0 W/m² | - |
* Rain since midnight (hover to see other rain measurements)
** Current wind speed in m/s (hover to see current wind gust speed)